Time;durP1;ratioP1;P1;durP2;ratioP2;P2;SDS_P1;SDS_P2;PMS_P1;PMS_P2;Temp;Humidity;BMP_temperature;BMP_pressure;BME280_temperature;BME280_humidity;BME280_pressure;Samples;Min_cycle;Max_cycle;Signal;HPM_P1;HPM_P2
2024/03/06 00:00:10;;;;;;;3.90;2.43;;;5.00;99.90;;;;;;6154010;23;20205;-89
2024/03/06 00:02:36;;;;;;;5.30;1.77;;;5.10;99.90;;;;;;6154804;23;20660;-88
2024/03/06 00:05:04;;;;;;;1.37;1.27;;;5.00;99.90;;;;;;6153620;23;20261;-89
2024/03/06 00:07:30;;;;;;;1.93;1.77;;;5.20;99.90;;;;;;6178561;23;20210;-88
2024/03/06 00:09:56;;;;;;;1.97;1.90;;;5.00;99.90;;;;;;6153635;23;20273;-88
2024/03/06 00:12:22;;;;;;;1.50;1.47;;;5.10;99.90;;;;;;6153852;23;20280;-89
2024/03/06 00:14:48;;;;;;;3.57;2.83;;;4.90;99.90;;;;;;6154106;23;20181;-88
2024/03/06 00:17:13;;;;;;;1.70;1.33;;;5.10;99.90;;;;;;6154575;23;20167;-89
2024/03/06 00:19:39;;;;;;;2.17;2.07;;;5.00;99.90;;;;;;6153930;23;20202;-89
2024/03/06 00:22:05;;;;;;;2.53;2.33;;;5.10;99.90;;;;;;6154330;23;20735;-88
2024/03/06 00:24:32;;;;;;;1.23;1.23;;;5.00;99.90;;;;;;6155884;23;20212;-89
2024/03/06 00:26:58;;;;;;;1.40;1.33;;;4.90;99.90;;;;;;6156044;23;20174;-89
2024/03/06 00:29:24;;;;;;;2.20;1.60;;;5.00;99.90;;;;;;6156781;23;20166;-89
2024/03/06 00:31:49;;;;;;;2.33;1.13;;;5.10;99.90;;;;;;6180084;23;20210;-89
2024/03/06 00:34:15;;;;;;;1.00;1.00;;;4.80;99.90;;;;;;6156090;23;20206;-88
2024/03/06 00:36:43;;;;;;;1.77;1.67;;;5.10;99.90;;;;;;6180126;23;20198;-88
2024/03/06 00:39:09;;;;;;;3.00;1.30;;;5.10;99.90;;;;;;6180101;23;20703;-89
2024/03/06 00:41:35;;;;;;;1.07;1.00;;;4.90;99.90;;;;;;6156109;23;20178;-89
2024/03/06 00:44:02;;;;;;;1.40;1.40;;;4.90;99.90;;;;;;6180133;23;20203;-88
2024/03/06 00:46:28;;;;;;;3.23;2.97;;;5.00;99.90;;;;;;6180147;23;20630;-89
2024/03/06 00:48:53;;;;;;;1.40;1.13;;;4.80;99.90;;;;;;6155355;23;20230;-89
2024/03/06 00:51:19;;;;;;;1.03;0.97;;;5.00;99.90;;;;;;6179788;23;20204;-89
2024/03/06 00:53:45;;;;;;;2.03;1.10;;;4.90;99.90;;;;;;6155613;23;20179;-89
2024/03/06 00:56:11;;;;;;;0.97;0.97;;;4.80;99.90;;;;;;6154990;23;20185;-89
2024/03/06 00:58:37;;;;;;;1.97;1.80;;;4.70;99.90;;;;;;6155165;23;20448;-89
2024/03/06 01:01:03;;;;;;;2.67;2.47;;;4.90;99.90;;;;;;6154916;23;20273;-89
2024/03/06 01:03:29;;;;;;;1.30;1.20;;;4.70;99.90;;;;;;6180188;23;20675;-89
2024/03/06 01:05:55;;;;;;;0.93;0.93;;;4.60;99.90;;;;;;6180076;23;20208;-88
2024/03/06 01:08:24;;;;;;;4.23;1.00;;;4.80;99.90;;;;;;6156445;23;20182;-89
2024/03/06 01:10:53;;;;;;;1.03;1.03;;;4.50;99.90;;;;;;6154858;23;20226;-89
2024/03/06 01:13:20;;;;;;;3.87;1.30;;;4.50;99.90;;;;;;6154800;23;20249;-89
2024/03/06 01:15:46;;;;;;;1.60;1.50;;;4.50;99.90;;;;;;6180343;23;20225;-89
2024/03/06 01:18:14;;;;;;;5.27;2.50;;;4.80;99.90;;;;;;6155312;23;20245;-89
2024/03/06 01:20:40;;;;;;;3.53;1.17;;;4.40;99.90;;;;;;6155454;23;20365;-89
2024/03/06 01:23:06;;;;;;;2.47;2.03;;;4.90;99.90;;;;;;6156073;23;20226;-89
2024/03/06 01:25:32;;;;;;;0.43;0.43;;;4.80;99.90;;;;;;6155172;23;20203;-89
2024/03/06 01:27:58;;;;;;;1.17;1.10;;;4.90;99.90;;;;;;6155421;23;20198;-89
2024/03/06 01:30:23;;;;;;;1.03;1.03;;;4.70;99.90;;;;;;6155366;23;20195;-87
2024/03/06 01:32:49;;;;;;;1.93;1.83;;;4.50;99.90;;;;;;6179679;23;20179;-89
2024/03/06 01:35:15;;;;;;;0.97;0.93;;;4.40;99.90;;;;;;6155698;23;20179;-89
2024/03/06 01:37:41;;;;;;;1.53;1.53;;;4.60;99.90;;;;;;6155724;23;20247;-89
2024/03/06 01:40:08;;;;;;;2.40;1.17;;;4.30;99.90;;;;;;6154512;23;20211;-89
2024/03/06 01:42:34;;;;;;;4.70;1.47;;;4.80;99.90;;;;;;6154946;23;20370;-90
2024/03/06 01:45:01;;;;;;;1.13;1.13;;;4.30;99.90;;;;;;6155285;23;20271;-89
2024/03/06 01:47:27;;;;;;;1.90;1.27;;;4.50;99.90;;;;;;6156405;23;20268;-89
2024/03/06 01:49:53;;;;;;;1.30;1.20;;;4.30;99.90;;;;;;6154616;23;20206;-89
2024/03/06 01:52:27;;;;;;;1.37;1.33;;;4.40;99.90;;;;;;6155243;23;20202;-89
2024/03/06 01:54:53;;;;;;;1.70;1.60;;;4.30;99.90;;;;;;6179701;23;20237;-90
2024/03/06 01:57:20;;;;;;;2.63;1.90;;;4.80;99.90;;;;;;6155326;23;20202;-89
2024/03/06 01:59:46;;;;;;;1.57;1.47;;;4.10;99.90;;;;;;6180014;23;20210;-89
2024/03/06 02:02:11;;;;;;;1.97;1.87;;;4.50;99.90;;;;;;6179707;23;20190;-89
2024/03/06 02:04:38;;;;;;;0.90;0.90;;;4.20;99.90;;;;;;6154608;23;20237;-88
2024/03/06 02:07:10;;;;;;;2.70;2.53;;;4.20;99.90;;;;;;6179668;23;20645;-89
2024/03/06 02:09:37;;;;;;;2.70;2.00;;;4.10;99.90;;;;;;6155175;23;20258;-89
2024/03/06 02:12:03;;;;;;;0.80;0.80;;;4.90;99.90;;;;;;6179589;23;20463;-89
2024/03/06 02:14:29;;;;;;;15.20;2.93;;;4.70;99.90;;;;;;6180670;23;20175;-88
2024/03/06 02:16:55;;;;;;;1.83;1.27;;;4.60;99.90;;;;;;6154059;23;20203;-89
2024/03/06 02:19:21;;;;;;;2.27;2.07;;;4.50;99.90;;;;;;6154660;23;20228;-89
2024/03/06 02:21:47;;;;;;;1.13;1.13;;;4.80;99.90;;;;;;6155023;23;20205;-89
2024/03/06 02:24:14;;;;;;;2.50;2.40;;;4.80;99.90;;;;;;6154765;23;20202;-89
2024/03/06 02:26:40;;;;;;;3.97;2.40;;;4.70;99.90;;;;;;6155101;23;20171;-89
2024/03/06 02:29:06;;;;;;;2.20;2.10;;;4.10;99.90;;;;;;6155370;23;20188;-89
2024/03/06 02:31:33;;;;;;;0.50;0.50;;;4.10;99.90;;;;;;6178933;23;20209;-89
2024/03/06 02:34:06;;;;;;;1.20;1.10;;;4.50;99.90;;;;;;6154649;23;20301;-89
2024/03/06 02:36:32;;;;;;;3.00;2.73;;;4.80;99.90;;;;;;6179296;23;20233;-89
2024/03/06 02:39:08;;;;;;;8.13;3.07;;;4.70;99.90;;;;;;6154543;23;20171;-89
2024/03/06 02:41:35;;;;;;;2.70;1.70;;;4.90;99.90;;;;;;6157356;23;20567;-89
2024/03/06 02:44:01;;;;;;;2.43;1.90;;;4.40;99.90;;;;;;6154717;23;21050;-90
2024/03/06 02:46:27;;;;;;;1.40;1.40;;;4.10;99.90;;;;;;6178947;23;20230;-90
2024/03/06 02:48:53;;;;;;;1.50;1.30;;;4.00;99.90;;;;;;6154549;23;20210;-89
2024/03/06 02:51:22;;;;;;;0.80;0.80;;;4.20;99.90;;;;;;6154694;23;20206;-90
2024/03/06 02:53:49;;;;;;;1.60;1.50;;;4.00;99.90;;;;;;6155592;23;20699;-90
2024/03/06 02:56:18;;;;;;;1.10;1.00;;;4.70;99.90;;;;;;6155791;23;20229;-89
2024/03/06 02:58:45;;;;;;;2.63;2.50;;;4.20;99.90;;;;;;6179872;23;20218;-89
2024/03/06 03:01:10;;;;;;;1.43;1.33;;;4.50;99.90;;;;;;6154409;23;20624;-89
2024/03/06 03:03:36;;;;;;;1.60;1.50;;;4.80;99.90;;;;;;6154382;23;20211;-89
2024/03/06 03:06:02;;;;;;;1.97;1.83;;;4.00;99.90;;;;;;6179065;23;20586;-89
2024/03/06 03:08:28;;;;;;;1.47;1.47;;;4.70;99.90;;;;;;6179779;23;20175;-90
2024/03/06 03:10:55;;;;;;;2.03;1.93;;;4.60;99.90;;;;;;6153841;23;20234;-90
2024/03/06 03:13:21;;;;;;;2.10;2.00;;;4.70;99.90;;;;;;6154758;23;20210;-89
2024/03/06 03:15:48;;;;;;;2.67;2.50;;;3.90;99.90;;;;;;6154593;23;20238;-90
2024/03/06 03:18:13;;;;;;;0.97;0.97;;;4.30;99.90;;;;;;6154053;23;20202;-90
2024/03/06 03:20:39;;;;;;;0.83;0.80;;;4.40;99.90;;;;;;6154748;23;20179;-89
2024/03/06 03:23:11;;;;;;;1.33;1.33;;;3.80;99.90;;;;;;6154364;23;20273;-90
2024/03/06 03:25:37;;;;;;;0.43;0.43;;;4.00;99.90;;;;;;6155454;23;20691;-90
2024/03/06 03:28:04;;;;;;;1.80;1.67;;;3.90;99.90;;;;;;6178816;23;20199;-90
2024/03/06 03:30:29;;;;;;;3.00;2.63;;;3.90;99.90;;;;;;6154533;23;20208;-89
2024/03/06 03:32:55;;;;;;;1.90;1.80;;;4.30;99.90;;;;;;6153697;23;20207;-90
2024/03/06 03:35:24;;;;;;;1.40;1.40;;;4.50;99.90;;;;;;6155107;23;20182;-89
2024/03/06 03:37:55;;;;;;;1.73;1.33;;;4.10;99.90;;;;;;6154997;23;20213;-89
2024/03/06 03:40:21;;;;;;;1.20;1.20;;;4.70;99.90;;;;;;6179027;23;20209;-90
2024/03/06 03:42:47;;;;;;;0.60;0.60;;;4.00;99.90;;;;;;6178970;23;20217;-90
2024/03/06 03:45:13;;;;;;;0.70;0.70;;;4.00;99.90;;;;;;6153707;23;20203;-89
2024/03/06 03:47:42;;;;;;;6.93;2.17;;;4.30;99.90;;;;;;6154908;23;20525;-90
2024/03/06 03:50:09;;;;;;;0.83;0.83;;;4.00;99.90;;;;;;6155290;23;20199;-90
2024/03/06 03:52:35;;;;;;;2.43;2.23;;;4.50;99.90;;;;;;6154278;23;20195;-90
2024/03/06 03:55:01;;;;;;;3.67;1.57;;;4.00;99.90;;;;;;6153726;23;20303;-91
2024/03/06 03:57:27;;;;;;;1.50;1.50;;;4.70;99.90;;;;;;6153584;23;20215;-90
2024/03/06 03:59:53;;;;;;;1.53;1.30;;;4.60;99.90;;;;;;6179010;23;20249;-89
2024/03/06 04:02:19;;;;;;;1.20;1.13;;;4.50;99.90;;;;;;6154733;23;20241;-90
2024/03/06 04:04:45;;;;;;;1.50;1.40;;;4.10;99.90;;;;;;6153687;23;20260;-90
2024/03/06 04:07:11;;;;;;;1.63;1.53;;;4.20;99.90;;;;;;6178373;23;20289;-90
2024/03/06 04:09:36;;;;;;;2.53;2.43;;;4.70;99.90;;;;;;6154165;23;20202;-90
2024/03/06 04:12:03;;;;;;;1.83;1.73;;;4.40;99.90;;;;;;6154028;23;20928;-90
2024/03/06 04:14:30;;;;;;;1.63;1.53;;;4.30;99.90;;;;;;6155071;23;20493;-89
2024/03/06 04:16:56;;;;;;;3.07;2.87;;;4.60;99.90;;;;;;6153706;23;20233;-89
2024/03/06 04:19:21;;;;;;;1.23;1.23;;;4.50;99.90;;;;;;6154235;23;20198;-89
2024/03/06 04:21:47;;;;;;;0.97;0.90;;;3.90;99.90;;;;;;6179980;23;20333;-89
2024/03/06 04:24:13;;;;;;;3.67;2.67;;;4.60;99.90;;;;;;6153893;23;20199;-90
2024/03/06 04:26:39;;;;;;;1.47;1.47;;;4.10;99.90;;;;;;6154779;23;20204;-89
2024/03/06 04:29:04;;;;;;;1.47;1.47;;;4.00;99.90;;;;;;6153553;23;20202;-89
2024/03/06 04:31:30;;;;;;;2.40;2.20;;;4.10;99.90;;;;;;6153596;23;20520;-90
2024/03/06 04:33:56;;;;;;;4.63;1.27;;;3.90;99.90;;;;;;6178379;23;20656;-90
2024/03/06 04:36:22;;;;;;;0.40;0.40;;;4.70;99.90;;;;;;6154079;23;20196;-90
2024/03/06 04:38:48;;;;;;;2.17;2.07;;;4.50;99.90;;;;;;6139873;23;20175;-89
2024/03/06 04:41:14;;;;;;;1.10;1.10;;;4.10;99.90;;;;;;6107753;23;20166;-90
2024/03/06 04:43:40;;;;;;;1.47;1.37;;;4.50;99.90;;;;;;6153563;23;20333;-90
2024/03/06 04:46:05;;;;;;;1.40;1.37;;;4.40;99.90;;;;;;6153322;23;20663;-89
2024/03/06 04:48:31;;;;;;;1.87;1.77;;;4.10;99.90;;;;;;6177893;23;20667;-90
2024/03/06 04:50:57;;;;;;;0.90;0.90;;;4.60;99.90;;;;;;6178126;23;20542;-89
2024/03/06 04:53:23;;;;;;;2.47;2.27;;;4.00;99.90;;;;;;6153611;23;20254;-90
2024/03/06 04:55:48;;;;;;;6.30;2.17;;;4.20;99.90;;;;;;6153371;23;20206;-90
2024/03/06 04:58:14;;;;;;;2.37;2.27;;;4.30;99.90;;;;;;6153268;23;20202;-89
2024/03/06 05:00:40;;;;;;;3.37;1.90;;;4.70;99.90;;;;;;6178254;23;20210;-90
2024/03/06 05:03:06;;;;;;;1.13;1.13;;;4.70;99.90;;;;;;6154043;23;20698;-89
2024/03/06 05:05:32;;;;;;;1.40;1.27;;;4.00;99.90;;;;;;6154273;23;20175;-90
2024/03/06 05:07:58;;;;;;;2.63;2.53;;;4.00;99.90;;;;;;6178560;23;20237;-90
2024/03/06 05:10:24;;;;;;;1.77;1.67;;;4.80;99.90;;;;;;6154989;23;20260;-90
2024/03/06 05:12:50;;;;;;;0.63;0.63;;;4.20;99.90;;;;;;6155903;23;20206;-89
2024/03/06 05:15:16;;;;;;;1.27;1.17;;;4.20;99.90;;;;;;6155834;23;20273;-90
2024/03/06 05:17:42;;;;;;;1.60;1.53;;;4.20;99.90;;;;;;6156141;23;20166;-90
2024/03/06 05:20:08;;;;;;;2.37;1.70;;;4.00;99.90;;;;;;6156312;23;20171;-90
2024/03/06 05:22:34;;;;;;;1.43;1.33;;;4.00;99.90;;;;;;6155321;23;20210;-89
2024/03/06 05:25:00;;;;;;;2.23;2.07;;;4.70;99.90;;;;;;6154915;23;20202;-89
2024/03/06 05:27:26;;;;;;;2.33;2.13;;;4.70;99.90;;;;;;6155197;23;20202;-90
2024/03/06 05:29:52;;;;;;;1.47;1.43;;;4.40;99.90;;;;;;6155867;23;20559;-90
2024/03/06 05:32:17;;;;;;;2.53;2.37;;;4.50;99.90;;;;;;6181060;23;20178;-90
2024/03/06 05:34:44;;;;;;;2.07;1.43;;;4.20;99.90;;;;;;6155639;23;20198;-90
2024/03/06 05:37:10;;;;;;;1.97;1.87;;;4.20;99.90;;;;;;6155717;23;20230;-90
2024/03/06 05:39:37;;;;;;;5.07;4.67;;;4.30;99.90;;;;;;6134782;23;20238;-90
2024/03/06 05:42:06;;;;;;;0.80;0.80;;;4.10;99.90;;;;;;6142591;23;20230;-90
2024/03/06 05:44:32;;;;;;;11.50;2.10;;;4.80;99.90;;;;;;6156228;23;20178;-90
2024/03/06 05:46:59;;;;;;;4.83;2.00;;;4.70;99.90;;;;;;6180212;23;20203;-90
2024/03/06 05:49:25;;;;;;;3.57;3.37;;;4.80;99.90;;;;;;6155349;23;20202;-90
2024/03/06 05:51:52;;;;;;;1.63;1.40;;;4.90;99.90;;;;;;6155269;23;20217;-90
2024/03/06 05:54:19;;;;;;;1.70;1.60;;;4.70;99.90;;;;;;6154945;23;20274;-90
2024/03/06 05:56:44;;;;;;;2.03;1.93;;;4.50;99.90;;;;;;6156126;23;20238;-89
2024/03/06 05:59:10;;;;;;;1.63;1.63;;;4.20;99.90;;;;;;6156147;23;20225;-90
2024/03/06 06:01:36;;;;;;;4.07;3.77;;;4.80;99.90;;;;;;6154691;23;20839;-89
2024/03/06 06:04:02;;;;;;;1.87;1.77;;;4.40;99.90;;;;;;6154715;23;20683;-90
2024/03/06 06:06:28;;;;;;;1.30;1.20;;;4.80;99.90;;;;;;6155238;23;20273;-89
2024/03/06 06:08:54;;;;;;;1.40;1.37;;;4.90;99.90;;;;;;6155609;23;20206;-90
2024/03/06 06:11:20;;;;;;;1.47;1.33;;;4.90;99.90;;;;;;6155886;23;20171;-90
2024/03/06 06:13:45;;;;;;;2.37;2.20;;;4.90;99.90;;;;;;6155054;23;20332;-90
2024/03/06 06:16:11;;;;;;;3.30;1.63;;;4.60;99.90;;;;;;6179517;23;20226;-89
2024/03/06 06:18:40;;;;;;;1.40;1.40;;;4.30;99.90;;;;;;6154646;23;20203;-90
2024/03/06 06:21:07;;;;;;;1.57;1.47;;;4.30;99.90;;;;;;6154434;23;20721;-90
2024/03/06 06:23:33;;;;;;;8.70;1.07;;;4.80;99.90;;;;;;6179309;23;20249;-91
2024/03/06 06:25:58;;;;;;;1.63;1.53;;;4.40;99.90;;;;;;6154684;23;20202;-89
2024/03/06 06:28:24;;;;;;;6.33;2.40;;;4.90;99.90;;;;;;6154952;23;20206;-89
2024/03/06 06:30:52;;;;;;;3.53;2.50;;;4.50;99.90;;;;;;6154536;23;20209;-89
2024/03/06 06:33:19;;;;;;;1.90;1.80;;;4.20;99.90;;;;;;6155246;23;20546;-89
2024/03/06 06:35:45;;;;;;;4.10;1.57;;;4.80;99.90;;;;;;6154999;23;20166;-89
2024/03/06 06:38:11;;;;;;;6.03;1.43;;;4.60;99.90;;;;;;6155850;23;20238;-90
2024/03/06 06:40:36;;;;;;;2.33;2.23;;;4.30;99.90;;;;;;6154792;23;20205;-89
2024/03/06 06:43:02;;;;;;;0.80;0.80;;;4.60;99.90;;;;;;6154462;23;20214;-90
2024/03/06 06:45:28;;;;;;;1.30;1.20;;;4.70;99.90;;;;;;6154637;23;20206;-90
2024/03/06 06:47:54;;;;;;;0.87;0.70;;;4.70;99.90;;;;;;6154953;23;20193;-90
2024/03/06 06:50:23;;;;;;;2.80;2.33;;;4.80;99.90;;;;;;6155179;23;20175;-89
2024/03/06 06:52:48;;;;;;;4.07;3.70;;;4.60;99.90;;;;;;6155284;23;20263;-89
2024/03/06 06:55:14;;;;;;;1.63;1.53;;;4.80;99.90;;;;;;6154405;23;20207;-89
2024/03/06 06:57:43;;;;;;;2.03;1.93;;;5.00;99.90;;;;;;6155959;23;20207;-89
2024/03/06 07:00:13;;;;;;;1.97;1.80;;;4.60;99.90;;;;;;6154669;23;20234;-90
2024/03/06 07:02:42;;;;;;;5.37;3.70;;;4.70;99.90;;;;;;6132512;23;20698;-89
2024/03/06 07:05:09;;;;;;;2.57;2.47;;;5.00;99.90;;;;;;6156180;23;20667;-90
2024/03/06 07:07:36;;;;;;;1.77;1.57;;;4.50;99.90;;;;;;6179632;23;20592;-88
2024/03/06 07:10:03;;;;;;;2.57;1.97;;;4.90;99.90;;;;;;6179818;23;20644;-90
2024/03/06 07:12:29;;;;;;;6.03;3.83;;;4.70;99.90;;;;;;6179228;23;20197;-89
2024/03/06 07:14:55;;;;;;;4.17;3.87;;;4.90;99.90;;;;;;6154566;23;20250;-88
2024/03/06 07:17:21;;;;;;;6.03;3.67;;;4.70;99.90;;;;;;6155447;23;20578;-90
2024/03/06 07:19:47;;;;;;;4.00;3.33;;;4.90;99.90;;;;;;6154846;23;20206;-89
2024/03/06 07:22:12;;;;;;;2.93;2.20;;;5.20;99.90;;;;;;6154209;23;20210;-87
2024/03/06 07:24:38;;;;;;;2.73;2.33;;;4.90;99.90;;;;;;6179308;23;20210;-88
2024/03/06 07:27:08;;;;;;;2.47;2.37;;;4.80;99.90;;;;;;6154556;23;20567;-88
2024/03/06 07:29:35;;;;;;;4.17;2.83;;;5.20;99.90;;;;;;6156005;23;20772;-87
2024/03/06 07:32:01;;;;;;;4.07;1.47;;;5.00;99.90;;;;;;6153906;23;20206;-88
2024/03/06 07:34:27;;;;;;;2.33;2.23;;;4.60;99.90;;;;;;6147954;23;20206;-88
2024/03/06 07:36:53;;;;;;;1.97;1.83;;;5.00;99.90;;;;;;6127452;23;20214;-89
2024/03/06 07:39:22;;;;;;;3.33;3.03;;;4.80;99.90;;;;;;6145205;23;20205;-90
2024/03/06 07:41:48;;;;;;;1.87;1.77;;;4.80;99.90;;;;;;6153924;23;20312;-89
2024/03/06 07:44:13;;;;;;;3.13;2.50;;;4.70;99.90;;;;;;6180790;23;20206;-88
2024/03/06 07:46:42;;;;;;;1.33;1.30;;;4.70;99.90;;;;;;6154605;23;20203;-88
2024/03/06 07:49:09;;;;;;;2.80;2.57;;;5.00;99.90;;;;;;6151415;23;20206;-90
2024/03/06 07:51:35;;;;;;;3.27;2.97;;;5.00;99.90;;;;;;6155054;23;20652;-89
2024/03/06 07:54:03;;;;;;;2.47;2.27;;;5.10;99.90;;;;;;6155879;23;20956;-89
2024/03/06 07:56:33;;;;;;;2.53;2.33;;;5.40;99.90;;;;;;6156071;23;20171;-89
2024/03/06 07:59:00;;;;;;;2.33;1.83;;;5.10;99.90;;;;;;6179970;23;20206;-88
2024/03/06 08:01:28;;;;;;;1.80;1.77;;;4.90;99.90;;;;;;6156111;23;20594;-89
2024/03/06 08:03:56;;;;;;;2.40;2.23;;;4.80;99.90;;;;;;6181090;23;20210;-90
2024/03/06 08:06:22;;;;;;;1.50;1.50;;;5.10;99.90;;;;;;6154610;23;20226;-89
2024/03/06 08:08:49;;;;;;;1.47;1.47;;;4.90;99.90;;;;;;6155365;23;20179;-91
2024/03/06 08:11:14;;;;;;;2.17;2.00;;;5.30;99.90;;;;;;6181928;23;20181;-90
2024/03/06 08:13:41;;;;;;;2.70;2.50;;;5.40;99.90;;;;;;6155496;23;20210;-90
2024/03/06 08:16:10;;;;;;;5.53;4.00;;;4.80;99.90;;;;;;6179957;23;20214;-90
2024/03/06 08:18:36;;;;;;;2.60;1.57;;;5.30;99.90;;;;;;6180004;23;20202;-91
2024/03/06 08:21:06;;;;;;;4.13;3.93;;;4.80;99.90;;;;;;6180383;23;20194;-90
2024/03/06 08:23:35;;;;;;;3.17;2.17;;;4.90;99.90;;;;;;6180706;23;20241;-90
2024/03/06 08:26:01;;;;;;;4.87;2.53;;;5.10;99.90;;;;;;6154970;23;20210;-90
2024/03/06 08:28:27;;;;;;;3.20;3.00;;;4.80;99.90;;;;;;6154755;23;20195;-90
2024/03/06 08:30:53;;;;;;;2.40;2.20;;;5.30;99.90;;;;;;6180140;23;20194;-90
2024/03/06 08:33:20;;;;;;;2.90;2.80;;;5.40;99.90;;;;;;6179512;23;20273;-91
2024/03/06 08:35:46;;;;;;;1.37;1.27;;;4.90;99.90;;;;;;6155642;23;20178;-90
2024/03/06 08:38:14;;;;;;;3.07;2.83;;;4.80;99.90;;;;;;6180152;23;20174;-91
2024/03/06 08:40:45;;;;;;;3.10;2.03;;;5.10;99.90;;;;;;6154532;23;20234;-89
2024/03/06 08:43:15;;;;;;;3.13;2.93;;;4.90;99.90;;;;;;6156553;23;20202;-90
2024/03/06 08:45:41;;;;;;;2.70;2.50;;;5.20;99.90;;;;;;6156743;23;20325;-90
2024/03/06 08:48:07;;;;;;;5.33;2.40;;;4.90;99.90;;;;;;6155919;23;20205;-89
2024/03/06 08:50:34;;;;;;;1.90;1.80;;;5.20;99.90;;;;;;6156513;23;20174;-89
2024/03/06 08:53:01;;;;;;;3.97;3.43;;;5.30;99.90;;;;;;6181514;23;20655;-90
2024/03/06 08:55:28;;;;;;;7.03;2.70;;;5.30;99.90;;;;;;6156618;23;20234;-90
2024/03/06 08:57:54;;;;;;;5.57;5.00;;;5.30;99.90;;;;;;6180989;23;20210;-90
2024/03/06 09:00:25;;;;;;;2.53;1.80;;;5.40;99.90;;;;;;6182856;23;20214;-90
2024/03/06 09:02:51;;;;;;;3.47;3.00;;;5.10;99.90;;;;;;6157263;23;20198;-90
2024/03/06 09:05:17;;;;;;;5.00;2.17;;;5.40;99.90;;;;;;6156256;23;20305;-90
2024/03/06 09:07:43;;;;;;;4.13;3.23;;;5.50;99.90;;;;;;6155595;23;20210;-90
2024/03/06 09:10:13;;;;;;;6.70;2.83;;;5.20;99.90;;;;;;6181594;23;20207;-90
2024/03/06 09:12:39;;;;;;;2.77;2.67;;;5.20;99.90;;;;;;6156932;23;20297;-90
2024/03/06 09:15:08;;;;;;;3.60;3.27;;;5.10;99.90;;;;;;6181552;23;20515;-90
2024/03/06 09:17:34;;;;;;;1.73;1.63;;;5.30;99.90;;;;;;6157550;23;20179;-89
2024/03/06 09:20:09;;;;;;;3.70;3.40;;;5.20;99.90;;;;;;6156017;23;20203;-90
2024/03/06 09:22:37;;;;;;;6.13;3.33;;;5.30;99.90;;;;;;6157899;23;20643;-90
2024/03/06 09:25:09;;;;;;;7.30;4.40;;;5.70;99.90;;;;;;6156152;23;20241;-90
2024/03/06 09:27:36;;;;;;;4.20;3.50;;;5.70;99.90;;;;;;6180745;23;20519;-90
2024/03/06 09:30:03;;;;;;;2.43;2.20;;;5.80;99.90;;;;;;6156702;23;20214;-90
2024/03/06 09:32:28;;;;;;;7.93;3.63;;;5.70;99.90;;;;;;6157190;23;20597;-91
2024/03/06 09:34:54;;;;;;;23.10;3.47;;;5.50;99.90;;;;;;6156518;23;20210;-90
2024/03/06 09:37:20;;;;;;;2.50;2.17;;;5.70;99.90;;;;;;6155553;23;20253;-90
2024/03/06 09:39:47;;;;;;;3.23;2.93;;;5.60;99.90;;;;;;6156364;23;20543;-90
2024/03/06 09:42:14;;;;;;;9.03;3.33;;;5.50;99.90;;;;;;6156849;23;20207;-90
2024/03/06 09:44:41;;;;;;;4.87;3.73;;;5.50;99.90;;;;;;6157356;23;20178;-90
2024/03/06 09:47:08;;;;;;;11.90;2.57;;;5.50;99.90;;;;;;6179193;23;20187;-90
2024/03/06 09:49:41;;;;;;;3.43;3.13;;;5.60;99.90;;;;;;6156657;23;20194;-91
2024/03/06 09:52:07;;;;;;;3.80;3.50;;;5.60;99.90;;;;;;6156434;23;20206;-90
2024/03/06 09:54:39;;;;;;;3.47;3.13;;;5.60;99.90;;;;;;6180637;23;20737;-91
2024/03/06 09:57:07;;;;;;;6.23;3.97;;;5.80;99.90;;;;;;6155280;23;20206;-90
2024/03/06 09:59:33;;;;;;;4.47;3.07;;;5.80;99.90;;;;;;6158074;23;20187;-92
2024/03/06 10:02:03;;;;;;;4.23;3.83;;;5.70;99.90;;;;;;6182734;23;20273;-90
2024/03/06 10:04:32;;;;;;;4.27;1.50;;;5.60;99.90;;;;;;6158928;23;20240;-90
2024/03/06 10:06:59;;;;;;;2.80;2.60;;;5.50;99.90;;;;;;6158286;23;20209;-90
2024/03/06 10:09:27;;;;;;;2.43;1.50;;;5.60;99.90;;;;;;6158621;23;20249;-91
2024/03/06 10:11:53;;;;;;;4.23;3.93;;;5.60;99.90;;;;;;6182652;23;20170;-90
2024/03/06 10:14:23;;;;;;;6.13;3.27;;;5.70;99.90;;;;;;6183750;23;20596;-90
2024/03/06 10:16:58;;;;;;;5.97;3.80;;;6.00;99.90;;;;;;6157364;23;20257;-91
2024/03/06 10:19:28;;;;;;;1.83;1.73;;;5.70;99.90;;;;;;6180857;23;20198;-90
2024/03/06 10:21:57;;;;;;;12.97;4.83;;;5.90;99.90;;;;;;6156890;23;20285;-91
2024/03/06 10:24:25;;;;;;;2.30;2.20;;;5.90;99.90;;;;;;6180170;23;20237;-91
2024/03/06 10:26:54;;;;;;;2.83;2.27;;;5.90;99.90;;;;;;6180400;23;20186;-90
2024/03/06 10:29:22;;;;;;;3.70;3.43;;;5.90;99.90;;;;;;6157981;23;20170;-91
2024/03/06 10:31:49;;;;;;;4.53;4.13;;;5.90;99.90;;;;;;6155722;23;20202;-90
2024/03/06 10:34:16;;;;;;;5.27;4.87;;;6.00;99.90;;;;;;6181184;23;20657;-89
2024/03/06 10:36:43;;;;;;;2.37;2.17;;;5.80;99.90;;;;;;6155423;23;20206;-90
2024/03/06 10:39:14;;;;;;;3.57;2.93;;;5.90;99.90;;;;;;6180427;23;20273;-90
2024/03/06 10:41:43;;;;;;;7.20;4.93;;;6.00;99.90;;;;;;6157204;23;20163;-90
2024/03/06 10:44:15;;;;;;;2.93;2.70;;;5.90;99.90;;;;;;6157167;23;20527;-89
2024/03/06 10:46:47;;;;;;;2.90;2.27;;;6.00;99.90;;;;;;6154954;23;20244;-90
2024/03/06 10:49:14;;;;;;;6.33;4.10;;;6.10;99.90;;;;;;6157194;23;20238;-91
2024/03/06 10:51:43;;;;;;;8.40;4.00;;;6.00;99.90;;;;;;6181119;23;20696;-89
2024/03/06 10:54:11;;;;;;;3.03;2.43;;;5.80;99.90;;;;;;6180379;23;20190;-89
2024/03/06 10:56:41;;;;;;;2.57;2.47;;;6.00;99.90;;;;;;6181101;23;20175;-90
2024/03/06 10:59:15;;;;;;;4.63;2.30;;;6.00;99.90;;;;;;6155983;23;20202;-90
2024/03/06 11:01:44;;;;;;;5.33;2.80;;;6.00;99.90;;;;;;6155566;23;20210;-89
2024/03/06 11:04:11;;;;;;;5.30;4.30;;;5.90;99.90;;;;;;6179230;23;20206;-89
2024/03/06 11:06:40;;;;;;;5.60;3.17;;;6.00;99.90;;;;;;6155390;23;20719;-89
2024/03/06 11:09:12;;;;;;;6.10;4.10;;;6.20;99.90;;;;;;6156783;23;20232;-89
2024/03/06 11:11:51;;;;;;;5.17;2.70;;;6.10;99.90;;;;;;6181065;23;20163;-90
2024/03/06 11:14:22;;;;;;;10.43;3.67;;;6.20;99.90;;;;;;6156293;23;20218;-90
2024/03/06 11:17:02;;;;;;;3.40;3.13;;;6.30;99.90;;;;;;6180706;23;20601;-90
2024/03/06 11:19:29;;;;;;;8.70;3.13;;;6.50;99.90;;;;;;6180913;23;20202;-88
2024/03/06 11:21:55;;;;;;;1.17;1.17;;;6.30;99.90;;;;;;6155502;23;20668;-90
2024/03/06 11:24:31;;;;;;;2.80;2.60;;;6.40;99.90;;;;;;6155425;23;20309;-88
2024/03/06 11:27:07;;;;;;;3.13;2.73;;;6.40;99.90;;;;;;6180154;23;20541;-89
2024/03/06 11:30:10;;;;;;;4.60;3.27;;;6.50;99.90;;;;;;6154760;23;20630;-89
2024/03/06 11:32:40;;;;;;;2.67;2.40;;;6.60;99.90;;;;;;6205020;23;20206;-89
2024/03/06 11:35:08;;;;;;;2.97;2.67;;;6.70;99.90;;;;;;6156544;23;20229;-89
2024/03/06 11:37:46;;;;;;;5.03;3.17;;;6.80;99.90;;;;;;6179024;23;20210;-89
2024/03/06 11:40:13;;;;;;;3.63;3.20;;;6.80;99.90;;;;;;6154199;23;20206;-90
2024/03/06 11:42:39;;;;;;;10.00;4.23;;;7.00;99.90;;;;;;6178853;23;20211;-89
2024/03/06 11:45:22;;;;;;;5.70;3.27;;;6.80;99.90;;;;;;6154308;23;20209;-89
2024/03/06 11:48:01;;;;;;;6.47;5.93;;;6.80;99.90;;;;;;6177594;23;20215;-91
2024/03/06 11:50:28;;;;;;;9.10;2.80;;;7.00;99.90;;;;;;6154637;23;20171;-90
2024/03/06 11:52:57;;;;;;;18.50;4.50;;;7.00;99.90;;;;;;6154789;23;20288;-88
2024/03/06 11:55:25;;;;;;;4.67;4.20;;;7.10;99.90;;;;;;6154435;23;20214;-89
2024/03/06 11:57:53;;;;;;;4.10;3.63;;;7.00;99.90;;;;;;6179390;23;20213;-89
2024/03/06 12:00:22;;;;;;;3.10;2.80;;;7.00;99.90;;;;;;6155413;23;20214;-90
2024/03/06 12:02:56;;;;;;;8.67;3.53;;;7.20;99.90;;;;;;6153960;23;20225;-88
2024/03/06 12:05:23;;;;;;;4.20;3.87;;;7.10;99.90;;;;;;6155690;23;20476;-88
2024/03/06 12:07:50;;;;;;;4.90;4.60;;;7.10;99.90;;;;;;6154686;23;20199;-89
2024/03/06 12:10:17;;;;;;;5.83;3.93;;;7.20;99.90;;;;;;6154651;23;20207;-89
2024/03/06 12:12:48;;;;;;;5.77;4.30;;;7.20;99.90;;;;;;6155551;23;20210;-90
2024/03/06 12:15:15;;;;;;;6.30;4.90;;;7.30;99.90;;;;;;6157104;23;20652;-89
2024/03/06 12:17:51;;;;;;;4.13;3.73;;;7.30;99.90;;;;;;6154449;23;20175;-87
2024/03/06 12:20:18;;;;;;;6.27;3.50;;;7.30;99.90;;;;;;6179024;23;20163;-89
2024/03/06 12:22:51;;;;;;;11.77;4.17;;;7.40;99.90;;;;;;6153498;23;20214;-88
2024/03/06 12:25:26;;;;;;;20.27;4.93;;;7.40;99.90;;;;;;6153032;23;20269;-89
2024/03/06 12:27:54;;;;;;;6.07;5.50;;;7.40;99.90;;;;;;6178555;23;20202;-87
2024/03/06 12:30:22;;;;;;;10.40;5.97;;;7.30;99.90;;;;;;6177361;23;20218;-92
2024/03/06 12:32:58;;;;;;;3.47;2.17;;;7.20;99.90;;;;;;6154007;23;20186;-89
2024/03/06 12:35:27;;;;;;;4.13;3.23;;;7.30;99.90;;;;;;6178137;23;20171;-88
2024/03/06 12:37:53;;;;;;;6.83;4.20;;;7.40;99.90;;;;;;6153923;23;20268;-88
2024/03/06 12:40:22;;;;;;;3.73;3.43;;;7.40;99.90;;;;;;6153181;23;20199;-87
2024/03/06 12:42:50;;;;;;;5.53;4.93;;;7.40;99.90;;;;;;6154554;23;20211;-89
2024/03/06 12:45:16;;;;;;;9.57;3.50;;;7.50;99.90;;;;;;6181194;23;20652;-88
2024/03/06 12:47:43;;;;;;;12.83;4.27;;;7.40;99.90;;;;;;6155025;23;20181;-88
2024/03/06 12:50:10;;;;;;;7.90;4.87;;;7.50;99.90;;;;;;6178583;23;20167;-90
2024/03/06 12:52:37;;;;;;;6.63;6.13;;;7.40;99.90;;;;;;6153703;23;20202;-88
2024/03/06 12:55:05;;;;;;;6.30;3.77;;;7.40;99.90;;;;;;6153889;23;20202;-88
2024/03/06 12:57:31;;;;;;;5.23;4.73;;;7.40;99.90;;;;;;6153830;23;20218;-89